sensor_id;sensor_type;location;lat;lon;timestamp;P1;durP1;ratioP1;P2;durP2;ratioP2
22219;SDS011;11279;48.364;10.904;2023-05-21T00:00:29;19.73;;;13.30;;
22219;SDS011;11279;48.364;10.904;2023-05-21T00:01:29;20.03;;;13.77;;
22219;SDS011;11279;48.364;10.904;2023-05-21T00:02:31;16.48;;;12.70;;
22219;SDS011;11279;48.364;10.904;2023-05-21T00:03:33;19.58;;;14.02;;
22219;SDS011;11279;48.364;10.904;2023-05-21T00:04:34;18.67;;;13.65;;
22219;SDS011;11279;48.364;10.904;2023-05-21T00:05:35;22.13;;;14.73;;
22219;SDS011;11279;48.364;10.904;2023-05-21T00:06:36;17.48;;;13.38;;
22219;SDS011;11279;48.364;10.904;2023-05-21T00:07:36;17.63;;;13.13;;
22219;SDS011;11279;48.364;10.904;2023-05-21T00:08:37;18.97;;;13.43;;
22219;SDS011;11279;48.364;10.904;2023-05-21T00:09:38;17.87;;;13.30;;
22219;SDS011;11279;48.364;10.904;2023-05-21T00:10:38;17.70;;;12.90;;
22219;SDS011;11279;48.364;10.904;2023-05-21T00:11:39;17.57;;;13.33;;
22219;SDS011;11279;48.364;10.904;2023-05-21T00:12:39;17.70;;;14.03;;
22219;SDS011;11279;48.364;10.904;2023-05-21T00:13:40;19.95;;;13.35;;
22219;SDS011;11279;48.364;10.904;2023-05-21T00:14:41;16.87;;;13.20;;
22219;SDS011;11279;48.364;10.904;2023-05-21T00:15:41;17.33;;;13.27;;
22219;SDS011;11279;48.364;10.904;2023-05-21T00:16:42;19.67;;;13.47;;
22219;SDS011;11279;48.364;10.904;2023-05-21T00:17:43;21.88;;;13.75;;
22219;SDS011;11279;48.364;10.904;2023-05-21T00:18:45;20.13;;;15.05;;
22219;SDS011;11279;48.364;10.904;2023-05-21T00:19:46;22.35;;;14.00;;
22219;SDS011;11279;48.364;10.904;2023-05-21T00:20:46;17.77;;;13.80;;
22219;SDS011;11279;48.364;10.904;2023-05-21T00:21:47;17.97;;;13.97;;
22219;SDS011;11279;48.364;10.904;2023-05-21T00:22:47;18.60;;;13.00;;
22219;SDS011;11279;48.364;10.904;2023-05-21T00:23:48;20.73;;;13.37;;
22219;SDS011;11279;48.364;10.904;2023-05-21T00:24:49;18.25;;;13.50;;
22219;SDS011;11279;48.364;10.904;2023-05-21T00:25:49;18.23;;;13.93;;
22219;SDS011;11279;48.364;10.904;2023-05-21T00:26:50;19.30;;;13.93;;
22219;SDS011;11279;48.364;10.904;2023-05-21T00:27:51;18.33;;;13.27;;
22219;SDS011;11279;48.364;10.904;2023-05-21T00:28:51;19.33;;;13.93;;
22219;SDS011;11279;48.364;10.904;2023-05-21T00:29:52;20.47;;;14.00;;
22219;SDS011;11279;48.364;10.904;2023-05-21T00:30:52;22.47;;;13.87;;
22219;SDS011;11279;48.364;10.904;2023-05-21T00:31:52;20.10;;;14.37;;
22219;SDS011;11279;48.364;10.904;2023-05-21T00:32:53;20.03;;;14.27;;
22219;SDS011;11279;48.364;10.904;2023-05-21T00:33:53;20.23;;;14.60;;
22219;SDS011;11279;48.364;10.904;2023-05-21T00:34:54;20.87;;;14.20;;
22219;SDS011;11279;48.364;10.904;2023-05-21T00:35:54;19.40;;;14.80;;
22219;SDS011;11279;48.364;10.904;2023-05-21T00:36:55;17.08;;;12.95;;
22219;SDS011;11279;48.364;10.904;2023-05-21T00:37:56;18.53;;;14.43;;
22219;SDS011;11279;48.364;10.904;2023-05-21T00:38:56;18.97;;;14.37;;
22219;SDS011;11279;48.364;10.904;2023-05-21T00:39:57;18.70;;;14.03;;
22219;SDS011;11279;48.364;10.904;2023-05-21T00:41:00;20.70;;;14.77;;
22219;SDS011;11279;48.364;10.904;2023-05-21T00:42:01;20.23;;;13.88;;
22219;SDS011;11279;48.364;10.904;2023-05-21T00:43:03;18.10;;;13.52;;
22219;SDS011;11279;48.364;10.904;2023-05-21T00:44:03;19.33;;;13.90;;
22219;SDS011;11279;48.364;10.904;2023-05-21T00:45:06;17.50;;;13.37;;
22219;SDS011;11279;48.364;10.904;2023-05-21T00:46:11;18.35;;;13.57;;
22219;SDS011;11279;48.364;10.904;2023-05-21T00:47:15;18.20;;;13.07;;
22219;SDS011;11279;48.364;10.904;2023-05-21T00:48:17;19.58;;;14.70;;
22219;SDS011;11279;48.364;10.904;2023-05-21T00:49:18;20.23;;;14.27;;
22219;SDS011;11279;48.364;10.904;2023-05-21T00:50:21;18.58;;;13.20;;
22219;SDS011;11279;48.364;10.904;2023-05-21T00:51:22;18.63;;;14.13;;
22219;SDS011;11279;48.364;10.904;2023-05-21T00:52:22;19.77;;;13.87;;
22219;SDS011;11279;48.364;10.904;2023-05-21T00:53:25;21.13;;;14.07;;
22219;SDS011;11279;48.364;10.904;2023-05-21T00:54:26;21.63;;;15.20;;
22219;SDS011;11279;48.364;10.904;2023-05-21T00:55:27;19.50;;;14.53;;
22219;SDS011;11279;48.364;10.904;2023-05-21T00:56:27;20.77;;;14.10;;
22219;SDS011;11279;48.364;10.904;2023-05-21T00:57:28;20.20;;;14.37;;
22219;SDS011;11279;48.364;10.904;2023-05-21T00:58:28;19.40;;;14.27;;
22219;SDS011;11279;48.364;10.904;2023-05-21T00:59:30;19.33;;;14.50;;
22219;SDS011;11279;48.364;10.904;2023-05-21T01:00:32;18.10;;;13.35;;
22219;SDS011;11279;48.364;10.904;2023-05-21T01:01:33;20.73;;;14.98;;
22219;SDS011;11279;48.364;10.904;2023-05-21T01:02:35;17.80;;;14.07;;
22219;SDS011;11279;48.364;10.904;2023-05-21T01:03:37;20.27;;;14.75;;
22219;SDS011;11279;48.364;10.904;2023-05-21T01:04:37;22.80;;;14.50;;
22219;SDS011;11279;48.364;10.904;2023-05-21T01:05:37;21.40;;;14.33;;
22219;SDS011;11279;48.364;10.904;2023-05-21T01:06:38;20.30;;;14.13;;
22219;SDS011;11279;48.364;10.904;2023-05-21T01:07:39;20.07;;;15.30;;
22219;SDS011;11279;48.364;10.904;2023-05-21T01:08:40;19.17;;;13.90;;
22219;SDS011;11279;48.364;10.904;2023-05-21T01:09:41;21.70;;;14.30;;
22219;SDS011;11279;48.364;10.904;2023-05-21T01:10:42;21.10;;;14.80;;
22219;SDS011;11279;48.364;10.904;2023-05-21T01:11:43;20.55;;;14.20;;
22219;SDS011;11279;48.364;10.904;2023-05-21T01:12:46;21.25;;;14.88;;
22219;SDS011;11279;48.364;10.904;2023-05-21T01:13:46;22.33;;;15.97;;
22219;SDS011;11279;48.364;10.904;2023-05-21T01:14:47;22.67;;;16.03;;
22219;SDS011;11279;48.364;10.904;2023-05-21T01:15:48;20.98;;;14.90;;
22219;SDS011;11279;48.364;10.904;2023-05-21T01:16:49;20.03;;;15.10;;
22219;SDS011;11279;48.364;10.904;2023-05-21T01:17:51;20.95;;;13.90;;
22219;SDS011;11279;48.364;10.904;2023-05-21T01:18:52;20.83;;;15.30;;
22219;SDS011;11279;48.364;10.904;2023-05-21T01:19:52;22.87;;;15.47;;
22219;SDS011;11279;48.364;10.904;2023-05-21T01:20:53;20.73;;;15.20;;
22219;SDS011;11279;48.364;10.904;2023-05-21T01:21:55;23.93;;;15.57;;
22219;SDS011;11279;48.364;10.904;2023-05-21T01:22:59;22.27;;;15.38;;
22219;SDS011;11279;48.364;10.904;2023-05-21T01:24:00;20.20;;;14.15;;
22219;SDS011;11279;48.364;10.904;2023-05-21T01:25:04;20.05;;;15.15;;
22219;SDS011;11279;48.364;10.904;2023-05-21T01:26:05;20.60;;;14.65;;
22219;SDS011;11279;48.364;10.904;2023-05-21T01:27:06;21.47;;;15.20;;
22219;SDS011;11279;48.364;10.904;2023-05-21T01:28:09;21.17;;;15.32;;
22219;SDS011;11279;48.364;10.904;2023-05-21T01:29:10;20.40;;;14.87;;
22219;SDS011;11279;48.364;10.904;2023-05-21T01:30:12;21.23;;;15.32;;
22219;SDS011;11279;48.364;10.904;2023-05-21T01:31:21;17.90;;;13.43;;
22219;SDS011;11279;48.364;10.904;2023-05-21T01:32:30;19.08;;;14.63;;
22219;SDS011;11279;48.364;10.904;2023-05-21T01:33:37;18.52;;;14.27;;
22219;SDS011;11279;48.364;10.904;2023-05-21T01:34:47;17.65;;;13.63;;
22219;SDS011;11279;48.364;10.904;2023-05-21T01:36:07;20.35;;;14.55;;
22219;SDS011;11279;48.364;10.904;2023-05-21T01:37:22;18.45;;;14.13;;
22219;SDS011;11279;48.364;10.904;2023-05-21T01:39:38;19.35;;;14.88;;
22219;SDS011;11279;48.364;10.904;2023-05-21T01:40:47;19.90;;;14.45;;
22219;SDS011;11279;48.364;10.904;2023-05-21T01:41:54;17.70;;;12.82;;
22219;SDS011;11279;48.364;10.904;2023-05-21T01:42:55;19.92;;;13.68;;
22219;SDS011;11279;48.364;10.904;2023-05-21T01:43:56;19.67;;;14.30;;
22219;SDS011;11279;48.364;10.904;2023-05-21T01:44:57;25.27;;;15.23;;
22219;SDS011;11279;48.364;10.904;2023-05-21T01:45:58;19.42;;;13.75;;
22219;SDS011;11279;48.364;10.904;2023-05-21T01:46:59;19.30;;;13.67;;
22219;SDS011;11279;48.364;10.904;2023-05-21T01:48:00;20.90;;;14.50;;
22219;SDS011;11279;48.364;10.904;2023-05-21T01:49:01;17.60;;;13.75;;
22219;SDS011;11279;48.364;10.904;2023-05-21T01:50:04;18.88;;;14.10;;
22219;SDS011;11279;48.364;10.904;2023-05-21T01:51:05;17.83;;;13.98;;
22219;SDS011;11279;48.364;10.904;2023-05-21T01:52:06;18.80;;;14.07;;
22219;SDS011;11279;48.364;10.904;2023-05-21T01:53:06;16.93;;;13.47;;
22219;SDS011;11279;48.364;10.904;2023-05-21T01:54:07;18.87;;;13.03;;
22219;SDS011;11279;48.364;10.904;2023-05-21T01:55:07;19.27;;;12.93;;
22219;SDS011;11279;48.364;10.904;2023-05-21T01:56:08;18.33;;;13.77;;
22219;SDS011;11279;48.364;10.904;2023-05-21T01:57:10;18.40;;;13.65;;
22219;SDS011;11279;48.364;10.904;2023-05-21T01:58:11;21.30;;;14.37;;
22219;SDS011;11279;48.364;10.904;2023-05-21T01:59:11;18.83;;;14.20;;
22219;SDS011;11279;48.364;10.904;2023-05-21T02:00:12;19.67;;;13.47;;
22219;SDS011;11279;48.364;10.904;2023-05-21T02:01:13;17.63;;;13.02;;
22219;SDS011;11279;48.364;10.904;2023-05-21T02:02:13;17.33;;;13.83;;
22219;SDS011;11279;48.364;10.904;2023-05-21T02:03:14;16.77;;;13.20;;
22219;SDS011;11279;48.364;10.904;2023-05-21T02:04:15;18.98;;;14.00;;
22219;SDS011;11279;48.364;10.904;2023-05-21T02:05:15;17.30;;;13.43;;
22219;SDS011;11279;48.364;10.904;2023-05-21T02:06:16;17.23;;;12.77;;
22219;SDS011;11279;48.364;10.904;2023-05-21T02:07:17;20.73;;;14.63;;
22219;SDS011;11279;48.364;10.904;2023-05-21T02:08:17;19.53;;;14.13;;
22219;SDS011;11279;48.364;10.904;2023-05-21T02:09:19;20.10;;;14.23;;
22219;SDS011;11279;48.364;10.904;2023-05-21T02:10:19;19.80;;;13.80;;
22219;SDS011;11279;48.364;10.904;2023-05-21T02:11:20;17.67;;;13.20;;
22219;SDS011;11279;48.364;10.904;2023-05-21T02:12:22;17.67;;;13.38;;
22219;SDS011;11279;48.364;10.904;2023-05-21T02:13:22;19.67;;;13.60;;
22219;SDS011;11279;48.364;10.904;2023-05-21T02:14:23;18.35;;;13.10;;
22219;SDS011;11279;48.364;10.904;2023-05-21T02:15:24;21.97;;;15.03;;
22219;SDS011;11279;48.364;10.904;2023-05-21T02:16:24;18.53;;;14.43;;
22219;SDS011;11279;48.364;10.904;2023-05-21T02:17:25;19.00;;;14.10;;
22219;SDS011;11279;48.364;10.904;2023-05-21T02:18:29;20.10;;;14.13;;
22219;SDS011;11279;48.364;10.904;2023-05-21T02:19:29;24.40;;;14.20;;
22219;SDS011;11279;48.364;10.904;2023-05-21T02:20:30;18.63;;;13.13;;
22219;SDS011;11279;48.364;10.904;2023-05-21T02:21:31;18.07;;;13.50;;
22219;SDS011;11279;48.364;10.904;2023-05-21T02:22:31;19.43;;;14.07;;
22219;SDS011;11279;48.364;10.904;2023-05-21T02:23:31;21.53;;;14.50;;
22219;SDS011;11279;48.364;10.904;2023-05-21T02:24:32;23.13;;;16.03;;
22219;SDS011;11279;48.364;10.904;2023-05-21T02:25:32;19.73;;;14.63;;
22219;SDS011;11279;48.364;10.904;2023-05-21T02:26:33;19.93;;;14.93;;
22219;SDS011;11279;48.364;10.904;2023-05-21T02:27:36;21.13;;;14.57;;
22219;SDS011;11279;48.364;10.904;2023-05-21T02:28:38;20.98;;;14.57;;
22219;SDS011;11279;48.364;10.904;2023-05-21T02:29:39;20.90;;;15.00;;
22219;SDS011;11279;48.364;10.904;2023-05-21T02:30:39;19.83;;;14.47;;
22219;SDS011;11279;48.364;10.904;2023-05-21T02:31:40;19.13;;;14.00;;
22219;SDS011;11279;48.364;10.904;2023-05-21T02:32:41;18.53;;;13.93;;
22219;SDS011;11279;48.364;10.904;2023-05-21T02:33:42;19.38;;;14.30;;
22219;SDS011;11279;48.364;10.904;2023-05-21T02:34:42;20.20;;;15.07;;
22219;SDS011;11279;48.364;10.904;2023-05-21T02:35:44;19.25;;;13.82;;
22219;SDS011;11279;48.364;10.904;2023-05-21T02:36:45;20.93;;;14.60;;
22219;SDS011;11279;48.364;10.904;2023-05-21T02:37:47;20.92;;;13.70;;
22219;SDS011;11279;48.364;10.904;2023-05-21T02:38:48;18.57;;;14.03;;
22219;SDS011;11279;48.364;10.904;2023-05-21T02:39:48;20.87;;;14.33;;
22219;SDS011;11279;48.364;10.904;2023-05-21T02:40:48;20.77;;;14.17;;
22219;SDS011;11279;48.364;10.904;2023-05-21T02:41:50;21.95;;;14.40;;
22219;SDS011;11279;48.364;10.904;2023-05-21T02:42:50;21.40;;;14.57;;
22219;SDS011;11279;48.364;10.904;2023-05-21T02:43:50;21.50;;;14.37;;
22219;SDS011;11279;48.364;10.904;2023-05-21T02:44:51;22.87;;;15.13;;
22219;SDS011;11279;48.364;10.904;2023-05-21T02:45:51;22.27;;;14.67;;
22219;SDS011;11279;48.364;10.904;2023-05-21T02:46:52;16.57;;;13.67;;
22219;SDS011;11279;48.364;10.904;2023-05-21T02:47:52;20.70;;;13.73;;
22219;SDS011;11279;48.364;10.904;2023-05-21T02:48:53;17.63;;;13.43;;
22219;SDS011;11279;48.364;10.904;2023-05-21T02:49:53;21.00;;;14.03;;
22219;SDS011;11279;48.364;10.904;2023-05-21T02:50:53;19.27;;;13.63;;
22219;SDS011;11279;48.364;10.904;2023-05-21T02:51:54;17.77;;;13.27;;
22219;SDS011;11279;48.364;10.904;2023-05-21T02:52:54;19.87;;;13.90;;
22219;SDS011;11279;48.364;10.904;2023-05-21T02:53:55;17.00;;;13.57;;
22219;SDS011;11279;48.364;10.904;2023-05-21T02:54:55;18.83;;;13.37;;
22219;SDS011;11279;48.364;10.904;2023-05-21T02:55:56;17.93;;;13.63;;
22219;SDS011;11279;48.364;10.904;2023-05-21T02:56:56;19.93;;;13.57;;
22219;SDS011;11279;48.364;10.904;2023-05-21T02:57:57;19.57;;;13.97;;
22219;SDS011;11279;48.364;10.904;2023-05-21T02:58:57;18.10;;;13.30;;
22219;SDS011;11279;48.364;10.904;2023-05-21T02:59:58;18.00;;;13.10;;
22219;SDS011;11279;48.364;10.904;2023-05-21T03:00:58;19.43;;;14.17;;
22219;SDS011;11279;48.364;10.904;2023-05-21T03:01:58;17.37;;;12.47;;
22219;SDS011;11279;48.364;10.904;2023-05-21T03:02:59;21.67;;;14.53;;
22219;SDS011;11279;48.364;10.904;2023-05-21T03:04:00;17.27;;;13.17;;
22219;SDS011;11279;48.364;10.904;2023-05-21T03:05:00;19.07;;;14.33;;
22219;SDS011;11279;48.364;10.904;2023-05-21T03:06:01;18.58;;;13.65;;
22219;SDS011;11279;48.364;10.904;2023-05-21T03:07:02;19.67;;;12.80;;
22219;SDS011;11279;48.364;10.904;2023-05-21T03:08:02;18.60;;;13.03;;
22219;SDS011;11279;48.364;10.904;2023-05-21T03:09:03;19.47;;;12.90;;
22219;SDS011;11279;48.364;10.904;2023-05-21T03:10:05;19.08;;;13.70;;
22219;SDS011;11279;48.364;10.904;2023-05-21T03:11:05;17.77;;;12.97;;
22219;SDS011;11279;48.364;10.904;2023-05-21T03:12:06;17.87;;;13.03;;
22219;SDS011;11279;48.364;10.904;2023-05-21T03:13:07;17.58;;;12.25;;
22219;SDS011;11279;48.364;10.904;2023-05-21T03:14:07;15.93;;;12.30;;
22219;SDS011;11279;48.364;10.904;2023-05-21T03:15:09;16.83;;;12.35;;
22219;SDS011;11279;48.364;10.904;2023-05-21T03:16:09;17.90;;;12.98;;
22219;SDS011;11279;48.364;10.904;2023-05-21T03:17:10;19.33;;;12.97;;
22219;SDS011;11279;48.364;10.904;2023-05-21T03:18:13;19.60;;;12.93;;
22219;SDS011;11279;48.364;10.904;2023-05-21T03:19:13;16.73;;;12.77;;
22219;SDS011;11279;48.364;10.904;2023-05-21T03:20:14;18.38;;;12.57;;
22219;SDS011;11279;48.364;10.904;2023-05-21T03:21:17;22.38;;;12.88;;
22219;SDS011;11279;48.364;10.904;2023-05-21T03:22:21;19.58;;;13.32;;
22219;SDS011;11279;48.364;10.904;2023-05-21T03:23:22;18.20;;;12.40;;
22219;SDS011;11279;48.364;10.904;2023-05-21T03:24:22;18.43;;;13.03;;
22219;SDS011;11279;48.364;10.904;2023-05-21T03:25:22;17.60;;;12.87;;
22219;SDS011;11279;48.364;10.904;2023-05-21T03:26:24;16.98;;;12.98;;
22219;SDS011;11279;48.364;10.904;2023-05-21T03:27:26;17.52;;;12.30;;
22219;SDS011;11279;48.364;10.904;2023-05-21T03:28:27;19.50;;;13.37;;
22219;SDS011;11279;48.364;10.904;2023-05-21T03:29:27;18.90;;;13.20;;
22219;SDS011;11279;48.364;10.904;2023-05-21T03:30:28;16.50;;;12.50;;
22219;SDS011;11279;48.364;10.904;2023-05-21T03:31:28;19.63;;;13.07;;
22219;SDS011;11279;48.364;10.904;2023-05-21T03:32:28;18.67;;;12.90;;
22219;SDS011;11279;48.364;10.904;2023-05-21T03:33:29;18.27;;;12.43;;
22219;SDS011;11279;48.364;10.904;2023-05-21T03:34:30;18.30;;;12.87;;
22219;SDS011;11279;48.364;10.904;2023-05-21T03:35:33;17.10;;;12.20;;
22219;SDS011;11279;48.364;10.904;2023-05-21T03:36:33;15.80;;;12.00;;
22219;SDS011;11279;48.364;10.904;2023-05-21T03:37:34;17.93;;;12.70;;
22219;SDS011;11279;48.364;10.904;2023-05-21T03:38:34;14.57;;;11.60;;
22219;SDS011;11279;48.364;10.904;2023-05-21T03:39:35;18.03;;;12.00;;
22219;SDS011;11279;48.364;10.904;2023-05-21T03:40:35;16.33;;;12.40;;
22219;SDS011;11279;48.364;10.904;2023-05-21T03:41:36;17.07;;;12.33;;
22219;SDS011;11279;48.364;10.904;2023-05-21T03:42:36;16.47;;;11.63;;
22219;SDS011;11279;48.364;10.904;2023-05-21T03:43:37;17.20;;;12.40;;
22219;SDS011;11279;48.364;10.904;2023-05-21T03:44:37;16.50;;;12.40;;
22219;SDS011;11279;48.364;10.904;2023-05-21T03:45:37;18.13;;;11.90;;
22219;SDS011;11279;48.364;10.904;2023-05-21T03:46:38;16.60;;;12.03;;
22219;SDS011;11279;48.364;10.904;2023-05-21T03:47:38;17.07;;;11.77;;
22219;SDS011;11279;48.364;10.904;2023-05-21T03:48:40;17.00;;;11.98;;
22219;SDS011;11279;48.364;10.904;2023-05-21T03:49:41;17.67;;;12.27;;
22219;SDS011;11279;48.364;10.904;2023-05-21T03:50:41;15.70;;;11.93;;
22219;SDS011;11279;48.364;10.904;2023-05-21T03:51:42;17.00;;;11.87;;
22219;SDS011;11279;48.364;10.904;2023-05-21T03:52:42;18.33;;;12.00;;
22219;SDS011;11279;48.364;10.904;2023-05-21T03:53:43;18.00;;;12.60;;
22219;SDS011;11279;48.364;10.904;2023-05-21T03:54:43;17.33;;;11.67;;
22219;SDS011;11279;48.364;10.904;2023-05-21T03:55:44;21.30;;;12.20;;
22219;SDS011;11279;48.364;10.904;2023-05-21T03:56:44;17.33;;;11.13;;
22219;SDS011;11279;48.364;10.904;2023-05-21T03:57:45;16.50;;;11.63;;
22219;SDS011;11279;48.364;10.904;2023-05-21T03:58:45;17.43;;;11.63;;
22219;SDS011;11279;48.364;10.904;2023-05-21T03:59:45;16.97;;;12.43;;
22219;SDS011;11279;48.364;10.904;2023-05-21T04:00:46;15.27;;;11.67;;
22219;SDS011;11279;48.364;10.904;2023-05-21T04:01:46;16.33;;;11.67;;
22219;SDS011;11279;48.364;10.904;2023-05-21T04:02:47;16.93;;;11.67;;
22219;SDS011;11279;48.364;10.904;2023-05-21T04:03:47;18.13;;;12.03;;
22219;SDS011;11279;48.364;10.904;2023-05-21T04:04:48;17.30;;;11.30;;
22219;SDS011;11279;48.364;10.904;2023-05-21T04:05:50;20.40;;;11.38;;
22219;SDS011;11279;48.364;10.904;2023-05-21T04:06:51;16.60;;;11.68;;
22219;SDS011;11279;48.364;10.904;2023-05-21T04:07:53;18.15;;;11.75;;
22219;SDS011;11279;48.364;10.904;2023-05-21T04:08:54;17.67;;;11.50;;
22219;SDS011;11279;48.364;10.904;2023-05-21T04:09:54;15.63;;;11.07;;
22219;SDS011;11279;48.364;10.904;2023-05-21T04:10:55;16.33;;;11.20;;
22219;SDS011;11279;48.364;10.904;2023-05-21T04:11:56;17.42;;;11.25;;
22219;SDS011;11279;48.364;10.904;2023-05-21T04:13:00;16.17;;;10.73;;
22219;SDS011;11279;48.364;10.904;2023-05-21T04:14:00;16.27;;;11.20;;
22219;SDS011;11279;48.364;10.904;2023-05-21T04:15:01;16.65;;;11.77;;
22219;SDS011;11279;48.364;10.904;2023-05-21T04:16:02;18.17;;;11.43;;
22219;SDS011;11279;48.364;10.904;2023-05-21T04:17:03;14.70;;;11.10;;
22219;SDS011;11279;48.364;10.904;2023-05-21T04:18:04;17.70;;;10.90;;
22219;SDS011;11279;48.364;10.904;2023-05-21T04:19:06;16.08;;;11.43;;
22219;SDS011;11279;48.364;10.904;2023-05-21T04:20:06;15.67;;;11.40;;
22219;SDS011;11279;48.364;10.904;2023-05-21T04:21:07;13.57;;;10.33;;
22219;SDS011;11279;48.364;10.904;2023-05-21T04:22:08;16.70;;;10.97;;
22219;SDS011;11279;48.364;10.904;2023-05-21T04:23:09;15.35;;;10.75;;
22219;SDS011;11279;48.364;10.904;2023-05-21T04:24:09;16.07;;;10.70;;
22219;SDS011;11279;48.364;10.904;2023-05-21T04:25:10;15.40;;;10.47;;
22219;SDS011;11279;48.364;10.904;2023-05-21T04:26:11;14.33;;;10.67;;
22219;SDS011;11279;48.364;10.904;2023-05-21T04:27:11;14.97;;;10.63;;
22219;SDS011;11279;48.364;10.904;2023-05-21T04:28:12;14.80;;;10.35;;
22219;SDS011;11279;48.364;10.904;2023-05-21T04:29:18;14.55;;;10.38;;
22219;SDS011;11279;48.364;10.904;2023-05-21T04:30:20;14.63;;;10.77;;
22219;SDS011;11279;48.364;10.904;2023-05-21T04:31:21;14.10;;;10.50;;
22219;SDS011;11279;48.364;10.904;2023-05-21T04:32:22;15.30;;;10.65;;
22219;SDS011;11279;48.364;10.904;2023-05-21T04:33:23;13.83;;;9.90;;
22219;SDS011;11279;48.364;10.904;2023-05-21T04:34:23;14.83;;;10.77;;
22219;SDS011;11279;48.364;10.904;2023-05-21T04:35:23;15.83;;;11.27;;
22219;SDS011;11279;48.364;10.904;2023-05-21T04:36:25;16.33;;;10.70;;
22219;SDS011;11279;48.364;10.904;2023-05-21T04:37:27;14.30;;;10.43;;
22219;SDS011;11279;48.364;10.904;2023-05-21T04:38:29;13.57;;;10.55;;
22219;SDS011;11279;48.364;10.904;2023-05-21T04:39:29;16.33;;;10.90;;
22219;SDS011;11279;48.364;10.904;2023-05-21T04:40:30;14.70;;;10.60;;
22219;SDS011;11279;48.364;10.904;2023-05-21T04:41:30;14.77;;;10.27;;
22219;SDS011;11279;48.364;10.904;2023-05-21T04:42:31;15.53;;;9.90;;
22219;SDS011;11279;48.364;10.904;2023-05-21T04:43:33;13.80;;;9.20;;
22219;SDS011;11279;48.364;10.904;2023-05-21T04:44:33;15.83;;;10.53;;
22219;SDS011;11279;48.364;10.904;2023-05-21T04:45:33;16.33;;;10.13;;
22219;SDS011;11279;48.364;10.904;2023-05-21T04:46:34;19.33;;;10.33;;
22219;SDS011;11279;48.364;10.904;2023-05-21T04:47:35;13.97;;;9.33;;
22219;SDS011;11279;48.364;10.904;2023-05-21T04:48:36;14.98;;;10.05;;
22219;SDS011;11279;48.364;10.904;2023-05-21T04:49:37;14.20;;;10.00;;
22219;SDS011;11279;48.364;10.904;2023-05-21T04:50:37;14.50;;;10.00;;
22219;SDS011;11279;48.364;10.904;2023-05-21T04:51:38;14.60;;;9.60;;
22219;SDS011;11279;48.364;10.904;2023-05-21T04:52:39;13.70;;;9.35;;
22219;SDS011;11279;48.364;10.904;2023-05-21T04:53:39;15.83;;;10.33;;
22219;SDS011;11279;48.364;10.904;2023-05-21T04:54:40;13.30;;;9.47;;
22219;SDS011;11279;48.364;10.904;2023-05-21T04:55:41;14.30;;;9.63;;
22219;SDS011;11279;48.364;10.904;2023-05-21T04:56:41;16.17;;;10.40;;
22219;SDS011;11279;48.364;10.904;2023-05-21T04:57:41;14.67;;;10.53;;
22219;SDS011;11279;48.364;10.904;2023-05-21T04:58:42;14.23;;;10.07;;
22219;SDS011;11279;48.364;10.904;2023-05-21T04:59:43;16.97;;;9.30;;
22219;SDS011;11279;48.364;10.904;2023-05-21T05:00:43;16.40;;;9.73;;
22219;SDS011;11279;48.364;10.904;2023-05-21T05:01:45;16.67;;;10.18;;
22219;SDS011;11279;48.364;10.904;2023-05-21T05:02:46;16.43;;;10.27;;
22219;SDS011;11279;48.364;10.904;2023-05-21T05:03:46;13.13;;;9.33;;
22219;SDS011;11279;48.364;10.904;2023-05-21T05:04:47;15.33;;;10.07;;
22219;SDS011;11279;48.364;10.904;2023-05-21T05:05:47;14.07;;;9.73;;
22219;SDS011;11279;48.364;10.904;2023-05-21T05:06:48;13.37;;;9.43;;
22219;SDS011;11279;48.364;10.904;2023-05-21T05:07:49;14.68;;;9.45;;
22219;SDS011;11279;48.364;10.904;2023-05-21T05:08:49;14.30;;;10.13;;
22219;SDS011;11279;48.364;10.904;2023-05-21T05:09:50;14.23;;;9.60;;
22219;SDS011;11279;48.364;10.904;2023-05-21T05:10:50;14.40;;;9.20;;
22219;SDS011;11279;48.364;10.904;2023-05-21T05:11:51;14.13;;;8.93;;
22219;SDS011;11279;48.364;10.904;2023-05-21T05:12:51;12.77;;;9.13;;
22219;SDS011;11279;48.364;10.904;2023-05-21T05:13:52;13.53;;;9.40;;
22219;SDS011;11279;48.364;10.904;2023-05-21T05:14:52;14.70;;;9.97;;
22219;SDS011;11279;48.364;10.904;2023-05-21T05:15:52;16.43;;;9.47;;
22219;SDS011;11279;48.364;10.904;2023-05-21T05:16:53;13.05;;;9.25;;
22219;SDS011;11279;48.364;10.904;2023-05-21T05:17:58;12.35;;;9.30;;
22219;SDS011;11279;48.364;10.904;2023-05-21T05:18:59;16.23;;;9.30;;
22219;SDS011;11279;48.364;10.904;2023-05-21T05:19:59;14.10;;;10.07;;
22219;SDS011;11279;48.364;10.904;2023-05-21T05:21:00;14.30;;;9.57;;
22219;SDS011;11279;48.364;10.904;2023-05-21T05:22:00;15.47;;;10.50;;
22219;SDS011;11279;48.364;10.904;2023-05-21T05:23:01;16.43;;;10.13;;
22219;SDS011;11279;48.364;10.904;2023-05-21T05:24:01;15.10;;;8.93;;
22219;SDS011;11279;48.364;10.904;2023-05-21T05:25:02;14.47;;;9.27;;
22219;SDS011;11279;48.364;10.904;2023-05-21T05:26:03;14.27;;;9.20;;
22219;SDS011;11279;48.364;10.904;2023-05-21T05:27:03;13.37;;;9.00;;
22219;SDS011;11279;48.364;10.904;2023-05-21T05:28:04;14.50;;;9.53;;
22219;SDS011;11279;48.364;10.904;2023-05-21T05:29:04;15.30;;;8.63;;
22219;SDS011;11279;48.364;10.904;2023-05-21T05:30:05;13.40;;;9.00;;
22219;SDS011;11279;48.364;10.904;2023-05-21T05:31:06;12.02;;;8.63;;
22219;SDS011;11279;48.364;10.904;2023-05-21T05:32:06;12.37;;;8.50;;
22219;SDS011;11279;48.364;10.904;2023-05-21T05:33:07;13.57;;;9.23;;
22219;SDS011;11279;48.364;10.904;2023-05-21T05:34:07;13.87;;;8.93;;
22219;SDS011;11279;48.364;10.904;2023-05-21T05:35:08;14.50;;;8.43;;
22219;SDS011;11279;48.364;10.904;2023-05-21T05:36:08;15.53;;;9.67;;
22219;SDS011;11279;48.364;10.904;2023-05-21T05:37:09;14.37;;;9.23;;
22219;SDS011;11279;48.364;10.904;2023-05-21T05:38:09;13.30;;;8.70;;
22219;SDS011;11279;48.364;10.904;2023-05-21T05:39:10;14.10;;;9.53;;
22219;SDS011;11279;48.364;10.904;2023-05-21T05:40:10;12.43;;;9.10;;
22219;SDS011;11279;48.364;10.904;2023-05-21T05:41:11;15.00;;;9.50;;
22219;SDS011;11279;48.364;10.904;2023-05-21T05:42:11;12.80;;;8.47;;
22219;SDS011;11279;48.364;10.904;2023-05-21T05:43:12;14.37;;;9.03;;
22219;SDS011;11279;48.364;10.904;2023-05-21T05:44:12;15.87;;;9.43;;
22219;SDS011;11279;48.364;10.904;2023-05-21T05:45:13;13.80;;;9.00;;
22219;SDS011;11279;48.364;10.904;2023-05-21T05:46:13;13.07;;;8.13;;
22219;SDS011;11279;48.364;10.904;2023-05-21T05:47:15;14.00;;;9.02;;
22219;SDS011;11279;48.364;10.904;2023-05-21T05:48:16;13.43;;;9.15;;
22219;SDS011;11279;48.364;10.904;2023-05-21T05:49:16;13.00;;;9.10;;
22219;SDS011;11279;48.364;10.904;2023-05-21T05:50:16;13.63;;;8.80;;
22219;SDS011;11279;48.364;10.904;2023-05-21T05:51:17;11.80;;;8.50;;
22219;SDS011;11279;48.364;10.904;2023-05-21T05:52:17;14.30;;;8.10;;
22219;SDS011;11279;48.364;10.904;2023-05-21T05:53:18;13.17;;;9.03;;
22219;SDS011;11279;48.364;10.904;2023-05-21T05:54:18;13.87;;;9.03;;